Time;durP1;ratioP1;P1;durP2;ratioP2;P2;SDS_P1;SDS_P2;PMS_P1;PMS_P2;Temp;Humidity;BMP_temperature;BMP_pressure;BME280_temperature;BME280_humidity;BME280_pressure;Samples;Min_cycle;Max_cycle;Signal;HPM_P1;HPM_P2
2021/12/09 00:02:20;;;;;;;;;;;;;;;;;;5062514;28;20332;-68
2021/12/09 00:04:47;;;;;;;;;;;;;;;;;;5063993;28;20018;-68
2021/12/09 00:07:13;;;;;;;;;;;;;;;;;;5063944;28;19929;-68
2021/12/09 00:09:40;;;;;;;;;;;;;;;;;;5070664;28;19925;-68
2021/12/09 00:12:07;;;;;;;;;;;;;;;;;;5071860;28;19924;-67
2021/12/09 00:14:34;;;;;;;;;;;;;;;;;;5069927;28;19925;-68
2021/12/09 00:17:01;;;;;;;;;;;;;;;;;;5070690;28;19925;-68
2021/12/09 00:19:28;;;;;;;;;;;;;;;;;;5064149;28;20401;-68
2021/12/09 00:21:56;;;;;;;;;;;;;;;;;;5069621;28;19928;-68
2021/12/09 00:24:23;;;;;;;;;;;;;;;;;;5064282;28;19931;-68
2021/12/09 00:26:50;;;;;;;;;;;;;;;;;;5070248;28;20352;-67
2021/12/09 00:29:17;;;;;;;;;;;;;;;;;;5070260;28;20275;-68
2021/12/09 00:31:44;;;;;;;;;;;;;;;;;;5069662;28;20378;-68
2021/12/09 00:34:11;;;;;;;;;;;;;;;;;;5071222;28;20020;-68
2021/12/09 00:36:41;;;;;;;;;;;;;;;;;;5064660;28;19924;-68
2021/12/09 00:39:08;;;;;;;;;;;;;;;;;;5064848;28;19924;-68
2021/12/09 00:41:35;;;;;;;;;;;;;;;;;;5061902;28;19932;-68
2021/12/09 00:44:02;;;;;;;;;;;;;;;;;;5068917;28;19924;-66
2021/12/09 00:46:30;;;;;;;;;;;;;;;;;;5061528;28;19935;-67
2021/12/09 00:48:57;;;;;;;;;;;;;;;;;;5068658;28;19938;-66
2021/12/09 00:51:24;;;;;;;;;;;;;;;;;;5063924;28;19939;-66
2021/12/09 00:53:51;;;;;;;;;;;;;;;;;;5063733;28;19932;-66
2021/12/09 00:56:18;;;;;;;;;;;;;;;;;;5062655;28;19924;-66
2021/12/09 00:58:45;;;;;;;;;;;;;;;;;;5066401;28;19931;-66
2021/12/09 01:01:12;;;;;;;;;;;;;;;;;;5061671;28;19932;-66
2021/12/09 01:03:39;;;;;;;;;;;;;;;;;;5069923;28;19924;-66
2021/12/09 01:06:06;;;;;;;;;;;;;;;;;;5068974;28;19928;-66
2021/12/09 01:08:33;;;;;;;;;;;;;;;;;;5068931;28;20617;-67
2021/12/09 01:11:01;;;;;;;;;;;;;;;;;;5068147;28;20301;-67
2021/12/09 01:13:27;;;;;;;;;;;;;;;;;;5068402;28;19925;-66
2021/12/09 01:15:54;;;;;;;;;;;;;;;;;;5067869;28;19931;-67
2021/12/09 01:18:21;;;;;;;;;;;;;;;;;;5064569;28;19925;-67
2021/12/09 01:20:48;;;;;;;;;;;;;;;;;;5067603;28;19931;-66
2021/12/09 01:23:15;;;;;;;;;;;;;;;;;;5066669;28;19932;-66
2021/12/09 01:25:43;;;;;;;;;;;;;;;;;;5067253;28;19925;-66
2021/12/09 01:28:14;;;;;;;;;;;;;;;;;;5065853;28;20234;-67
2021/12/09 01:30:41;;;;;;;;;;;;;;;;;;5068509;28;19925;-67
2021/12/09 01:33:09;;;;;;;;;;;;;;;;;;5067243;28;19933;-67
2021/12/09 01:35:37;;;;;;;;;;;;;;;;;;5067997;28;20278;-67
2021/12/09 01:38:10;;;;;;;;;;;;;;;;;;5062903;28;19932;-67
2021/12/09 01:40:37;;;;;;;;;;;;;;;;;;5066018;28;20357;-66
2021/12/09 01:43:04;;;;;;;;;;;;;;;;;;5066400;28;20270;-66
2021/12/09 01:45:31;;;;;;;;;;;;;;;;;;5067547;28;20297;-67
2021/12/09 01:47:58;;;;;;;;;;;;;;;;;;5065607;28;19947;-67
2021/12/09 01:50:25;;;;;;;;;;;;;;;;;;5066761;28;19935;-66
2021/12/09 01:52:52;;;;;;;;;;;;;;;;;;5068733;28;19947;-67
2021/12/09 01:55:19;;;;;;;;;;;;;;;;;;5071128;28;19930;-67
2021/12/09 01:57:46;;;;;;;;;;;;;;;;;;5068819;28;19924;-67
2021/12/09 02:00:13;;;;;;;;;;;;;;;;;;5070920;28;19931;-67
2021/12/09 02:02:40;;;;;;;;;;;;;;;;;;5073193;28;19925;-66
2021/12/09 02:05:07;;;;;;;;;;;;;;;;;;5072909;28;20046;-66
2021/12/09 02:07:34;;;;;;;;;;;;;;;;;;5073893;28;19928;-67
2021/12/09 02:10:01;;;;;;;;;;;;;;;;;;5074024;28;19932;-66
2021/12/09 02:12:28;;;;;;;;;;;;;;;;;;5068334;28;19925;-65
2021/12/09 02:14:59;;;;;;;;;;;;;;;;;;5071211;28;19931;-66
2021/12/09 02:17:25;;;;;;;;;;;;;;;;;;5068966;28;19932;-66
2021/12/09 02:19:52;;;;;;;;;;;;;;;;;;5069000;28;20386;-66
2021/12/09 02:22:19;;;;;;;;;;;;;;;;;;5068743;28;20309;-66
2021/12/09 02:24:46;;;;;;;;;;;;;;;;;;5064659;28;19924;-67
2021/12/09 02:27:13;;;;;;;;;;;;;;;;;;5069741;28;19936;-67
2021/12/09 02:29:41;;;;;;;;;;;;;;;;;;5071658;28;19932;-66
2021/12/09 02:32:08;;;;;;;;;;;;;;;;;;5070248;28;19925;-67
2021/12/09 02:34:35;;;;;;;;;;;;;;;;;;5066572;28;19924;-67
2021/12/09 02:37:03;;;;;;;;;;;;;;;;;;5066104;28;19924;-66
2021/12/09 02:39:30;;;;;;;;;;;;;;;;;;5064742;28;19924;-66
2021/12/09 02:41:58;;;;;;;;;;;;;;;;;;5069997;28;20374;-67
2021/12/09 02:44:25;;;;;;;;;;;;;;;;;;5071518;28;20378;-67
2021/12/09 02:46:52;;;;;;;;;;;;;;;;;;5069419;28;19925;-67
2021/12/09 02:49:19;;;;;;;;;;;;;;;;;;5069119;28;19932;-67
2021/12/09 02:51:46;;;;;;;;;;;;;;;;;;5072567;28;19931;-67
2021/12/09 02:54:14;;;;;;;;;;;;;;;;;;5064823;28;20349;-67
2021/12/09 02:56:41;;;;;;;;;;;;;;;;;;5071239;28;20019;-67
2021/12/09 02:59:09;;;;;;;;;;;;;;;;;;5063160;28;19924;-66
2021/12/09 03:01:36;;;;;;;;;;;;;;;;;;5062446;28;19932;-67
2021/12/09 03:04:03;;;;;;;;;;;;;;;;;;5069797;28;20650;-67
2021/12/09 03:06:30;;;;;;;;;;;;;;;;;;5067592;28;19924;-67
2021/12/09 03:08:57;;;;;;;;;;;;;;;;;;5063420;28;20412;-67
2021/12/09 03:11:24;;;;;;;;;;;;;;;;;;5062896;28;19967;-67
2021/12/09 03:13:51;;;;;;;;;;;;;;;;;;5070797;28;19925;-66
2021/12/09 03:16:19;;;;;;;;;;;;;;;;;;5070985;28;19928;-67
2021/12/09 03:18:46;;;;;;;;;;;;;;;;;;5066972;28;19924;-67
2021/12/09 03:21:13;;;;;;;;;;;;;;;;;;5064192;28;19924;-66
2021/12/09 03:23:40;;;;;;;;;;;;;;;;;;5069868;28;20279;-67
2021/12/09 03:26:07;;;;;;;;;;;;;;;;;;5067756;28;19924;-67
2021/12/09 03:28:34;;;;;;;;;;;;;;;;;;5068720;28;20015;-67
2021/12/09 03:31:01;;;;;;;;;;;;;;;;;;5071141;28;19932;-67
2021/12/09 03:33:27;;;;;;;;;;;;;;;;;;5069351;28;19924;-67
2021/12/09 03:35:54;;;;;;;;;;;;;;;;;;5072626;28;19924;-67
2021/12/09 03:38:21;;;;;;;;;;;;;;;;;;5069161;28;19924;-67
2021/12/09 03:40:48;;;;;;;;;;;;;;;;;;5067909;28;19931;-67
2021/12/09 03:43:15;;;;;;;;;;;;;;;;;;5068577;28;19931;-67
2021/12/09 03:45:42;;;;;;;;;;;;;;;;;;5064391;28;20313;-67
2021/12/09 03:48:09;;;;;;;;;;;;;;;;;;5070084;28;19932;-67
2021/12/09 03:50:37;;;;;;;;;;;;;;;;;;5068957;28;19928;-67
2021/12/09 03:53:04;;;;;;;;;;;;;;;;;;5070033;28;19955;-67
2021/12/09 03:55:31;;;;;;;;;;;;;;;;;;5070379;28;19924;-67
2021/12/09 03:57:58;;;;;;;;;;;;;;;;;;5070474;28;19931;-67
2021/12/09 04:00:28;;;;;;;;;;;;;;;;;;5065587;28;20321;-67
2021/12/09 04:02:54;;;;;;;;;;;;;;;;;;5069868;28;20045;-67
2021/12/09 04:05:21;;;;;;;;;;;;;;;;;;5061662;28;19931;-67
2021/12/09 04:07:48;;;;;;;;;;;;;;;;;;5068795;28;19924;-67
2021/12/09 04:10:15;;;;;;;;;;;;;;;;;;5062126;28;19925;-67
2021/12/09 04:12:42;;;;;;;;;;;;;;;;;;5058726;28;19928;-67
2021/12/09 04:15:09;;;;;;;;;;;;;;;;;;5067920;28;19943;-67
2021/12/09 04:17:36;;;;;;;;;;;;;;;;;;5068493;28;19924;-66
2021/12/09 04:20:03;;;;;;;;;;;;;;;;;;5070073;28;19932;-67
2021/12/09 04:22:30;;;;;;;;;;;;;;;;;;5070069;28;19924;-67
2021/12/09 04:24:57;;;;;;;;;;;;;;;;;;5066304;28;20310;-66
2021/12/09 04:27:25;;;;;;;;;;;;;;;;;;5061584;28;19951;-66
2021/12/09 04:29:52;;;;;;;;;;;;;;;;;;5067729;28;19925;-67
2021/12/09 04:32:19;;;;;;;;;;;;;;;;;;5066357;28;19926;-67
2021/12/09 04:34:46;;;;;;;;;;;;;;;;;;5067803;28;20408;-67
2021/12/09 04:37:13;;;;;;;;;;;;;;;;;;5064243;28;19924;-67
2021/12/09 04:39:41;;;;;;;;;;;;;;;;;;5065296;28;19924;-67
2021/12/09 04:42:08;;;;;;;;;;;;;;;;;;5067812;28;20401;-67
2021/12/09 04:44:35;;;;;;;;;;;;;;;;;;5064061;28;19931;-67
2021/12/09 04:47:02;;;;;;;;;;;;;;;;;;5067507;28;19924;-67
2021/12/09 04:49:29;;;;;;;;;;;;;;;;;;5069779;28;20030;-67
2021/12/09 04:51:57;;;;;;;;;;;;;;;;;;5069274;28;19924;-67
2021/12/09 04:54:24;;;;;;;;;;;;;;;;;;5065543;28;19944;-67
2021/12/09 04:56:52;;;;;;;;;;;;;;;;;;5068541;28;20007;-67
2021/12/09 04:59:19;;;;;;;;;;;;;;;;;;5069540;28;20033;-67
2021/12/09 05:01:49;;;;;;;;;;;;;;;;;;5067809;28;19932;-67
2021/12/09 05:04:16;;;;;;;;;;;;;;;;;;5067630;28;20374;-67
2021/12/09 05:06:43;;;;;;;;;;;;;;;;;;5063351;28;19931;-67
2021/12/09 05:09:16;;;;;;;;;;;;;;;;;;5067131;28;19931;-67
2021/12/09 05:11:49;;;;;;;;;;;;;;;;;;5069398;28;19928;-67
2021/12/09 05:14:16;;;;;;;;;;;;;;;;;;5069208;28;19975;-67
2021/12/09 05:16:43;;;;;;;;;;;;;;;;;;5067841;28;19924;-67
2021/12/09 05:19:10;;;;;;;;;;;;;;;;;;5066140;28;20305;-66
2021/12/09 05:21:38;;;;;;;;;;;;;;;;;;5068466;28;19924;-67
2021/12/09 05:24:05;;;;;;;;;;;;;;;;;;5065959;28;19928;-67
2021/12/09 05:26:39;;;;;;;;;;;;;;;;;;5065449;28;20408;-67
2021/12/09 05:29:06;;;;;;;;;;;;;;;;;;5068098;28;19983;-67
2021/12/09 05:34:18;;;;;;;;;;;;;;;;;;5074070;28;20282;-67
2021/12/09 05:36:45;;;;;;;;;;;;;;;;;;5073761;28;19928;-67
2021/12/09 05:39:12;;;;;;;;;;;;;;;;;;5072185;28;19936;-67
2021/12/09 05:41:39;;;;;;;;;;;;;;;;;;5069589;28;20395;-68
2021/12/09 05:44:06;;;;;;;;;;;;;;;;;;5074479;28;19931;-67
2021/12/09 05:46:33;;;;;;;;;;;;;;;;;;5074741;28;19924;-67
2021/12/09 05:49:00;;;;;;;;;;;;;;;;;;5072226;28;19925;-68
2021/12/09 05:51:27;;;;;;;;;;;;;;;;;;5070236;28;19924;-68
2021/12/09 05:53:55;;;;;;;;;;;;;;;;;;5072008;28;20007;-69
2021/12/09 05:56:22;;;;;;;;;;;;;;;;;;5071764;28;19929;-67
2021/12/09 05:58:49;;;;;;;;;;;;;;;;;;5071408;28;20412;-68
2021/12/09 06:01:16;;;;;;;;;;;;;;;;;;5072305;28;20019;-67
2021/12/09 06:03:43;;;;;;;;;;;;;;;;;;5071797;28;19924;-67
2021/12/09 06:06:11;;;;;;;;;;;;;;;;;;5066533;28;19967;-67
2021/12/09 06:08:39;;;;;;;;;;;;;;;;;;5070068;28;19932;-67
2021/12/09 06:11:06;;;;;;;;;;;;;;;;;;5070707;28;19932;-67
2021/12/09 06:13:36;;;;;;;;;;;;;;;;;;5066200;28;19946;-67
2021/12/09 06:16:03;;;;;;;;;;;;;;;;;;5066709;28;20188;-66
2021/12/09 06:18:30;;;;;;;;;;;;;;;;;;5073695;28;19924;-67
2021/12/09 06:20:57;;;;;;;;;;;;;;;;;;5071335;28;19931;-67
2021/12/09 06:23:24;;;;;;;;;;;;;;;;;;5072296;28;19924;-67
2021/12/09 06:25:51;;;;;;;;;;;;;;;;;;5070629;28;19931;-67
2021/12/09 06:28:18;;;;;;;;;;;;;;;;;;5061788;28;19924;-67
2021/12/09 06:30:45;;;;;;;;;;;;;;;;;;5070069;28;19939;-67
2021/12/09 06:33:12;;;;;;;;;;;;;;;;;;5064734;28;20301;-67
2021/12/09 06:35:39;;;;;;;;;;;;;;;;;;5067105;28;19929;-67
2021/12/09 06:38:11;;;;;;;;;;;;;;;;;;5068090;28;19932;-67
2021/12/09 06:40:37;;;;;;;;;;;;;;;;;;5071199;28;19967;-67
2021/12/09 06:43:04;;;;;;;;;;;;;;;;;;5070353;28;19924;-67
2021/12/09 06:45:32;;;;;;;;;;;;;;;;;;5072248;28;19925;-67
2021/12/09 06:47:59;;;;;;;;;;;;;;;;;;5064817;28;20353;-67
2021/12/09 06:50:26;;;;;;;;;;;;;;;;;;5066788;28;20412;-67
2021/12/09 06:52:53;;;;;;;;;;;;;;;;;;5069584;28;19940;-67
2021/12/09 06:55:20;;;;;;;;;;;;;;;;;;5071662;28;19929;-67
2021/12/09 06:57:47;;;;;;;;;;;;;;;;;;5068048;28;19924;-67
2021/12/09 07:00:14;;;;;;;;;;;;;;;;;;5072520;28;19924;-67
2021/12/09 07:02:41;;;;;;;;;;;;;;;;;;5066755;28;19924;-67
2021/12/09 07:05:08;;;;;;;;;;;;;;;;;;5069298;28;19935;-67
2021/12/09 07:07:35;;;;;;;;;;;;;;;;;;5063014;28;19932;-67
2021/12/09 07:10:02;;;;;;;;;;;;;;;;;;5072003;28;19924;-66
2021/12/09 07:12:29;;;;;;;;;;;;;;;;;;5069824;28;19930;-66
2021/12/09 07:14:56;;;;;;;;;;;;;;;;;;5070138;28;19929;-67
2021/12/09 07:17:23;;;;;;;;;;;;;;;;;;5065573;28;19930;-67
2021/12/09 07:19:50;;;;;;;;;;;;;;;;;;5070844;28;19932;-67
2021/12/09 07:22:17;;;;;;;;;;;;;;;;;;5070803;28;20452;-67
2021/12/09 07:24:45;;;;;;;;;;;;;;;;;;5067994;28;20320;-67
2021/12/09 07:27:12;;;;;;;;;;;;;;;;;;5067593;28;19925;-67
2021/12/09 07:29:39;;;;;;;;;;;;;;;;;;5069971;28;19939;-66
2021/12/09 07:32:06;;;;;;;;;;;;;;;;;;5065058;28;19936;-67
2021/12/09 07:34:33;;;;;;;;;;;;;;;;;;5065889;28;20183;-67
2021/12/09 07:37:03;;;;;;;;;;;;;;;;;;5072698;28;19931;-67
2021/12/09 07:39:30;;;;;;;;;;;;;;;;;;5062589;28;20364;-67
2021/12/09 07:41:59;;;;;;;;;;;;;;;;;;5068741;28;20278;-68
2021/12/09 07:44:26;;;;;;;;;;;;;;;;;;5063883;28;19935;-67
2021/12/09 07:46:54;;;;;;;;;;;;;;;;;;5066476;28;19951;-66
2021/12/09 07:49:21;;;;;;;;;;;;;;;;;;5067525;28;19929;-68
2021/12/09 07:51:48;;;;;;;;;;;;;;;;;;5070384;28;19978;-67
2021/12/09 07:54:15;;;;;;;;;;;;;;;;;;5068125;28;19925;-67
2021/12/09 07:56:41;;;;;;;;;;;;;;;;;;5070994;28;19924;-67
2021/12/09 07:59:09;;;;;;;;;;;;;;;;;;5069180;28;19952;-67
2021/12/09 08:01:36;;;;;;;;;;;;;;;;;;5070855;28;19935;-65
2021/12/09 08:04:03;;;;;;;;;;;;;;;;;;5065456;28;19924;-66
2021/12/09 08:06:30;;;;;;;;;;;;;;;;;;5070447;28;19978;-67
2021/12/09 08:08:58;;;;;;;;;;;;;;;;;;5067919;28;19932;-67
2021/12/09 08:11:24;;;;;;;;;;;;;;;;;;5069819;28;20340;-67
2021/12/09 08:13:51;;;;;;;;;;;;;;;;;;5068771;28;19924;-67
2021/12/09 08:16:18;;;;;;;;;;;;;;;;;;5070399;28;19924;-67
2021/12/09 08:18:54;;;;;;;;;;;;;;;;;;5068679;28;19929;-67
2021/12/09 08:21:21;;;;;;;;;;;;;;;;;;5067339;28;19932;-68
2021/12/09 08:23:48;;;;;;;;;;;;;;;;;;5062434;28;20436;-67
2021/12/09 08:26:15;;;;;;;;;;;;;;;;;;5067916;28;19929;-67
2021/12/09 08:28:42;;;;;;;;;;;;;;;;;;5068551;28;19930;-67
2021/12/09 08:31:09;;;;;;;;;;;;;;;;;;5071521;28;19951;-67
2021/12/09 08:33:36;;;;;;;;;;;;;;;;;;5069258;28;19929;-67
2021/12/09 08:36:03;;;;;;;;;;;;;;;;;;5068915;28;19925;-67
2021/12/09 08:38:29;;;;;;;;;;;;;;;;;;5070019;28;19924;-67
2021/12/09 08:40:56;;;;;;;;;;;;;;;;;;5069250;28;19933;-67
2021/12/09 08:43:23;;;;;;;;;;;;;;;;;;5060916;28;19925;-67
2021/12/09 08:45:50;;;;;;;;;;;;;;;;;;5063999;28;19932;-67
2021/12/09 08:48:17;;;;;;;;;;;;;;;;;;5063260;28;19931;-68
2021/12/09 08:50:44;;;;;;;;;;;;;;;;;;5068579;28;19924;-68
2021/12/09 08:53:11;;;;;;;;;;;;;;;;;;5065242;28;19924;-67
2021/12/09 08:55:39;;;;;;;;;;;;;;;;;;5069820;28;19924;-67
2021/12/09 08:58:06;;;;;;;;;;;;;;;;;;5065130;28;20315;-68
2021/12/09 09:00:33;;;;;;;;;;;;;;;;;;5068857;28;19924;-66
2021/12/09 09:03:00;;;;;;;;;;;;;;;;;;5061645;28;20348;-66
2021/12/09 09:05:27;;;;;;;;;;;;;;;;;;5064385;28;19925;-66
2021/12/09 09:07:54;;;;;;;;;;;;;;;;;;5067653;28;20312;-66
2021/12/09 09:10:21;;;;;;;;;;;;;;;;;;5069304;28;19925;-66
2021/12/09 09:12:48;;;;;;;;;;;;;;;;;;5069666;28;19924;-67
2021/12/09 09:15:15;;;;;;;;;;;;;;;;;;5062673;28;19925;-67
2021/12/09 09:17:42;;;;;;;;;;;;;;;;;;5065269;28;20026;-69
2021/12/09 09:20:09;;;;;;;;;;;;;;;;;;5068965;28;20202;-66
2021/12/09 09:22:36;;;;;;;;;;;;;;;;;;5066320;28;19925;-67
2021/12/09 09:25:03;;;;;;;;;;;;;;;;;;5063851;28;19925;-66
2021/12/09 09:27:30;;;;;;;;;;;;;;;;;;5068197;28;19943;-66
2021/12/09 09:29:57;;;;;;;;;;;;;;;;;;5069424;28;19931;-67
2021/12/09 09:32:23;;;;;;;;;;;;;;;;;;5058058;28;20328;-67
2021/12/09 09:34:53;;;;;;;;;;;;;;;;;;5061249;28;19932;-66
2021/12/09 09:37:20;;;;;;;;;;;;;;;;;;5062920;28;19931;-66
2021/12/09 09:39:47;;;;;;;;;;;;;;;;;;5062558;28;19931;-67
2021/12/09 09:42:33;;;;;;;;;;;;;;;;;;5062696;28;19932;-66
2021/12/09 09:44:59;;;;;;;;;;;;;;;;;;5062281;28;19932;-66
2021/12/09 09:47:26;;;;;;;;;;;;;;;;;;5063030;28;19928;-65
2021/12/09 09:49:53;;;;;;;;;;;;;;;;;;5063000;28;19947;-67
2021/12/09 09:52:20;;;;;;;;;;;;;;;;;;5061356;28;20313;-66
2021/12/09 09:54:47;;;;;;;;;;;;;;;;;;5064116;28;19948;-66
2021/12/09 09:57:14;;;;;;;;;;;;;;;;;;5063982;28;19933;-66
2021/12/09 09:59:42;;;;;;;;;;;;;;;;;;5064227;28;19931;-66
2021/12/09 10:02:09;;;;;;;;;;;;;;;;;;5064801;28;20015;-66
2021/12/09 10:04:44;;;;;;;;;;;;;;;;;;5063047;28;19974;-67
2021/12/09 10:07:11;;;;;;;;;;;;;;;;;;5064611;28;19924;-66
2021/12/09 10:09:38;;;;;;;;;;;;;;;;;;5064560;28;20300;-67
2021/12/09 10:12:05;;;;;;;;;;;;;;;;;;5064096;28;19925;-69
2021/12/09 10:14:33;;;;;;;;;;;;;;;;;;5062880;28;19933;-67
2021/12/09 10:17:00;;;;;;;;;;;;;;;;;;5068728;28;20393;-67
2021/12/09 10:19:27;;;;;;;;;;;;;;;;;;5068132;28;19929;-67
2021/12/09 10:21:54;;;;;;;;;;;;;;;;;;5068621;28;19970;-67
2021/12/09 10:24:22;;;;;;;;;;;;;;;;;;5069880;28;19931;-67
2021/12/09 10:26:50;;;;;;;;;;;;;;;;;;5068808;28;19932;-66
2021/12/09 10:29:20;;;;;;;;;;;;;;;;;;5067894;28;20321;-66
2021/12/09 10:31:48;;;;;;;;;;;;;;;;;;5066569;28;19930;-66
2021/12/09 10:34:20;;;;;;;;;;;;;;;;;;5067822;28;19974;-66
2021/12/09 10:36:47;;;;;;;;;;;;;;;;;;5067106;28;19974;-66
2021/12/09 10:39:14;;;;;;;;;;;;;;;;;;5069104;28;20290;-67
2021/12/09 10:41:40;;;;;;;;;;;;;;;;;;5069713;28;19929;-67
2021/12/09 10:44:07;;;;;;;;;;;;;;;;;;5068497;28;19939;-68
2021/12/09 10:46:34;;;;;;;;;;;;;;;;;;5068748;28;19932;-67
2021/12/09 10:49:01;;;;;;;;;;;;;;;;;;5064877;28;19925;-66
2021/12/09 10:51:34;;;;;;;;;;;;;;;;;;5065647;28;19948;-66
2021/12/09 10:54:01;;;;;;;;;;;;;;;;;;5084604;22;19993;-66
2021/12/09 10:56:28;;;;;;;;;;;;;;;;;;5085038;28;19924;-67
2021/12/09 10:58:55;;;;;;;;;;;;;;;;;;5081256;28;19935;-67
2021/12/09 11:01:23;;;;;;;;;;;;;;;;;;5086828;28;19931;-67
2021/12/09 11:03:50;;;;;;;;;;;;;;;;;;5085669;28;20022;-66
2021/12/09 11:06:18;;;;;;;;;;;;;;;;;;5083639;28;20399;-66
2021/12/09 11:08:44;;;;;;;;;;;;;;;;;;5086729;28;19924;-66
2021/12/09 11:11:11;;;;;;;;;;;;;;;;;;5083002;28;19925;-66
2021/12/09 11:13:38;;;;;;;;;;;;;;;;;;5089826;28;19924;-67
2021/12/09 11:16:06;;;;;;;;;;;;;;;;;;5083307;28;19924;-66
2021/12/09 11:18:35;;;;;;;;;;;;;;;;;;5082859;28;19924;-65
2021/12/09 11:21:03;;;;;;;;;;;;;;;;;;5081707;28;20284;-65
2021/12/09 11:23:30;;;;;;;;;;;;;;;;;;5084118;28;20365;-65
2021/12/09 11:25:59;;;;;;;;;;;;;;;;;;5085527;28;20316;-68
2021/12/09 11:28:27;;;;;;;;;;;;;;;;;;5082890;28;20015;-65
2021/12/09 11:30:54;;;;;;;;;;;;;;;;;;5082126;28;20018;-65
2021/12/09 11:33:26;;;;;;;;;;;;;;;;;;5080939;28;19928;-66
2021/12/09 11:35:53;;;;;;;;;;;;;;;;;;5088832;28;19936;-66
2021/12/09 11:38:34;;;;;;;;;;;;;;;;;;5083600;28;19924;-66
2021/12/09 11:41:02;;;;;;;;;;;;;;;;;;5082832;28;19924;-66
2021/12/09 11:43:29;;;;;;;;;;;;;;;;;;5079242;28;20399;-66
2021/12/09 11:45:57;;;;;;;;;;;;;;;;;;5083977;28;19927;-66
2021/12/09 11:48:24;;;;;;;;;;;;;;;;;;5082849;28;19932;-66
2021/12/09 11:50:51;;;;;;;;;;;;;;;;;;5080561;28;19952;-66
2021/12/09 11:53:18;;;;;;;;;;;;;;;;;;5084208;28;19928;-66
2021/12/09 11:55:50;;;;;;;;;;;;;;;;;;5082294;28;20025;-66
2021/12/09 11:58:21;;;;;;;;;;;;;;;;;;5084671;28;19947;-66
2021/12/09 12:11:47;;;;;;;;;;;;;;;;;;5086153;28;19939;-67
2021/12/09 12:14:18;;;;;;;;;;;;;;;;;;5081003;28;20015;-66
2021/12/09 12:16:59;;;;;;;;;;;;;;;;;;5083406;28;20393;-66
2021/12/09 12:19:33;;;;;;;;;;;;;;;;;;5087079;28;19928;-68
2021/12/09 12:25:12;;;;;;;;;;;;;;;;;;5081087;28;19920;-68
2021/12/09 12:27:46;;;;;;;;;;;;;;;;;;5079776;28;19939;-67
2021/12/09 12:33:18;;;;;;;;;;;;;;;;;;5078673;28;19963;-67
2021/12/09 12:35:56;;;;;;;;;;;;;;;;;;5082421;28;19924;-67
2021/12/09 12:38:38;;;;;;;;;;;;;;;;;;5082422;28;20178;-68
2021/12/09 12:41:06;;;;;;;;;;;;;;;;;;5079057;28;19925;-67
2021/12/09 12:43:37;;;;;;;;;;;;;;;;;;5083480;28;19924;-68
2021/12/09 12:46:13;;;;;;;;;;;;;;;;;;5080930;28;19924;-68
2021/12/09 12:48:49;;;;;;;;;;;;;;;;;;5079856;28;21225;-68
2021/12/09 12:51:19;;;;;;;;;;;;;;;;;;5084803;28;19979;-68
2021/12/09 12:53:46;;;;;;;;;;;;;;;;;;5081486;28;19936;-68
2021/12/09 12:56:13;;;;;;;;;;;;;;;;;;5081916;28;20023;-67
2021/12/09 12:58:40;;;;;;;;;;;;;;;;;;5081535;28;20017;-68
2021/12/09 13:01:07;;;;;;;;;;;;;;;;;;5086314;28;19935;-68
2021/12/09 13:03:41;;;;;;;;;;;;;;;;;;5082563;28;19925;-67
2021/12/09 13:06:13;;;;;;;;;;;;;;;;;;5083678;28;19924;-68
2021/12/09 13:09:11;;;;;;;;;;;;;;;;;;5082374;28;19973;-66
2021/12/09 13:11:38;;;;;;;;;;;;;;;;;;5080981;28;19936;-66
2021/12/09 13:14:11;;;;;;;;;;;;;;;;;;5082618;28;19955;-67
2021/12/09 13:19:29;;;;;;;;;;;;;;;;;;5081385;28;19924;-67
2021/12/09 13:21:58;;;;;;;;;;;;;;;;;;5082197;28;19935;-67
2021/12/09 13:24:28;;;;;;;;;;;;;;;;;;5084264;28;20019;-66
2021/12/09 13:26:55;;;;;;;;;;;;;;;;;;5079624;28;19924;-66
2021/12/09 13:29:32;;;;;;;;;;;;;;;;;;5081440;28;20042;-66
2021/12/09 13:32:12;;;;;;;;;;;;;;;;;;5082165;28;20018;-65
2021/12/09 13:34:48;;;;;;;;;;;;;;;;;;5078326;28;19924;-66
2021/12/09 13:37:37;;;;;;;;;;;;;;;;;;5081367;28;20014;-65
2021/12/09 13:40:23;;;;;;;;;;;;;;;;;;5077960;28;20007;-66
2021/12/09 13:46:05;;;;;;;;;;;;;;;;;;5026673;28;19921;-68
2021/12/09 13:48:43;;;;;;;;;;;;;;;;;;5020224;28;19985;-68
2021/12/09 13:51:19;;;;;;;;;;;;;;;;;;5062681;28;19983;-66
2021/12/09 13:54:08;;;;;;;;;;;;;;;;;;5087595;28;20416;-66
2021/12/09 13:56:35;;;;;;;;;;;;;;;;;;5088495;28;19924;-67
2021/12/09 13:59:02;;;;;;;;;;;;;;;;;;5086082;28;19934;-66
2021/12/09 14:01:29;;;;;;;;;;;;;;;;;;5086833;28;19924;-66
2021/12/09 14:03:56;;;;;;;;;;;;;;;;;;5086611;28;20308;-66
2021/12/09 14:06:23;;;;;;;;;;;;;;;;;;5087847;28;19928;-66
2021/12/09 14:08:53;;;;;;;;;;;;;;;;;;5086440;28;19930;-67
2021/12/09 14:11:20;;;;;;;;;;;;;;;;;;5083169;28;19924;-67
2021/12/09 14:13:49;;;;;;;;;;;;;;;;;;5083945;28;20369;-67
2021/12/09 14:16:26;;;;;;;;;;;;;;;;;;5089255;28;19924;-67
2021/12/09 14:19:58;;;;;;;;;;;;;;;;;;5085870;28;19924;-67
2021/12/09 14:21:49;;;;;;;;;;;;;;;;;;5084798;28;19924;-67
2021/12/09 14:24:16;;;;;;;;;;;;;;;;;;5086552;28;20011;-66
2021/12/09 14:26:44;;;;;;;;;;;;;;;;;;5087152;28;20360;-67
2021/12/09 14:29:13;;;;;;;;;;;;;;;;;;5086643;28;20016;-68
2021/12/09 14:31:39;;;;;;;;;;;;;;;;;;5085354;28;20203;-67
2021/12/09 14:34:07;;;;;;;;;;;;;;;;;;5088420;28;19924;-67
2021/12/09 14:36:34;;;;;;;;;;;;;;;;;;5083553;28;20274;-68
2021/12/09 14:39:01;;;;;;;;;;;;;;;;;;5086517;28;20387;-68
2021/12/09 14:41:29;;;;;;;;;;;;;;;;;;5086555;28;19978;-67
2021/12/09 14:43:56;;;;;;;;;;;;;;;;;;5088175;28;19981;-67
2021/12/09 14:46:25;;;;;;;;;;;;;;;;;;5085739;28;19924;-68
2021/12/09 14:48:52;;;;;;;;;;;;;;;;;;5085726;28;19973;-67
2021/12/09 14:51:19;;;;;;;;;;;;;;;;;;5087009;28;19931;-67
2021/12/09 14:53:46;;;;;;;;;;;;;;;;;;5085568;28;19932;-67
2021/12/09 14:56:13;;;;;;;;;;;;;;;;;;5081496;28;19924;-67
2021/12/09 14:58:40;;;;;;;;;;;;;;;;;;5081698;28;20010;-67
2021/12/09 15:01:07;;;;;;;;;;;;;;;;;;5081983;28;19932;-67
2021/12/09 15:03:36;;;;;;;;;;;;;;;;;;5089093;28;19930;-67
2021/12/09 15:06:03;;;;;;;;;;;;;;;;;;5085064;28;19940;-68
2021/12/09 15:08:30;;;;;;;;;;;;;;;;;;5087795;28;19946;-68
2021/12/09 15:10:57;;;;;;;;;;;;;;;;;;5084074;28;19924;-68
2021/12/09 15:13:24;;;;;;;;;;;;;;;;;;5084628;28;19930;-68
2021/12/09 15:15:50;;;;;;;;;;;;;;;;;;5084380;28;19931;-68
2021/12/09 15:18:17;;;;;;;;;;;;;;;;;;5082493;28;19938;-68
2021/12/09 15:20:47;;;;;;;;;;;;;;;;;;5087947;28;19931;-68
2021/12/09 15:23:17;;;;;;;;;;;;;;;;;;5082465;28;19924;-67
2021/12/09 15:25:44;;;;;;;;;;;;;;;;;;5082283;28;20293;-67
2021/12/09 15:28:11;;;;;;;;;;;;;;;;;;5083553;28;19935;-67
2021/12/09 15:30:37;;;;;;;;;;;;;;;;;;5087119;28;19925;-68
2021/12/09 15:33:05;;;;;;;;;;;;;;;;;;5081505;28;19978;-68
2021/12/09 15:35:32;;;;;;;;;;;;;;;;;;5085990;28;19924;-68
2021/12/09 15:38:00;;;;;;;;;;;;;;;;;;5081472;28;19935;-68
2021/12/09 15:40:27;;;;;;;;;;;;;;;;;;5083365;28;19925;-67
2021/12/09 15:42:54;;;;;;;;;;;;;;;;;;5083711;28;19924;-67
2021/12/09 15:45:21;;;;;;;;;;;;;;;;;;5082472;28;19924;-68
2021/12/09 15:47:50;;;;;;;;;;;;;;;;;;5083339;28;19924;-67
2021/12/09 15:50:17;;;;;;;;;;;;;;;;;;5085101;28;19925;-68
2021/12/09 15:52:43;;;;;;;;;;;;;;;;;;5081735;28;19931;-68
2021/12/09 15:55:10;;;;;;;;;;;;;;;;;;5081358;28;19929;-68
2021/12/09 15:57:37;;;;;;;;;;;;;;;;;;5082387;28;19947;-68
2021/12/09 16:00:04;;;;;;;;;;;;;;;;;;5086989;28;20396;-68
2021/12/09 16:02:31;;;;;;;;;;;;;;;;;;5080328;28;20365;-68
2021/12/09 16:04:58;;;;;;;;;;;;;;;;;;5080805;28;19931;-68
2021/12/09 16:07:25;;;;;;;;;;;;;;;;;;5083073;28;19942;-68
2021/12/09 16:09:52;;;;;;;;;;;;;;;;;;5080543;28;19932;-67
2021/12/09 16:12:24;;;;;;;;;;;;;;;;;;5085117;28;19950;-67
2021/12/09 16:14:54;;;;;;;;;;;;;;;;;;5081893;28;19924;-67
2021/12/09 16:17:25;;;;;;;;;;;;;;;;;;5083425;28;20377;-67
2021/12/09 16:19:53;;;;;;;;;;;;;;;;;;5079851;28;19931;-67
2021/12/09 16:22:29;;;;;;;;;;;;;;;;;;5078974;28;19931;-67
2021/12/09 16:24:56;;;;;;;;;;;;;;;;;;5080294;28;20463;-67
2021/12/09 16:27:23;;;;;;;;;;;;;;;;;;5085369;28;20336;-67
2021/12/09 16:29:50;;;;;;;;;;;;;;;;;;5081469;28;19928;-67
2021/12/09 16:32:17;;;;;;;;;;;;;;;;;;5077565;28;20309;-66
2021/12/09 16:34:45;;;;;;;;;;;;;;;;;;5082544;28;20353;-67
2021/12/09 16:37:12;;;;;;;;;;;;;;;;;;5082354;28;19924;-68
2021/12/09 16:39:39;;;;;;;;;;;;;;;;;;5082726;28;19939;-68
2021/12/09 16:42:06;;;;;;;;;;;;;;;;;;5081737;28;19954;-67
2021/12/09 16:44:33;;;;;;;;;;;;;;;;;;5073824;28;20580;-67
2021/12/09 16:47:00;;;;;;;;;;;;;;;;;;5073178;28;20385;-69
2021/12/09 16:49:26;;;;;;;;;;;;;;;;;;5076566;28;20300;-64
2021/12/09 16:51:53;;;;;;;;;;;;;;;;;;5078759;28;19924;-64
2021/12/09 16:54:27;;;;;;;;;;;;;;;;;;5092279;22;20272;-68
2021/12/09 16:56:58;;;;;;;;;;;;;;;;;;5062157;28;20382;-66
2021/12/09 16:59:25;;;;;;;;;;;;;;;;;;5060012;28;19930;-67
2021/12/09 17:01:52;;;;;;;;;;;;;;;;;;5056820;28;20396;-66
2021/12/09 17:04:19;;;;;;;;;;;;;;;;;;5062142;28;19994;-66
2021/12/09 17:06:46;;;;;;;;;;;;;;;;;;5062071;28;19925;-67
2021/12/09 17:09:14;;;;;;;;;;;;;;;;;;5058338;28;19925;-67
2021/12/09 17:11:42;;;;;;;;;;;;;;;;;;5060563;28;19932;-65
2021/12/09 17:14:09;;;;;;;;;;;;;;;;;;5060211;28;20334;-67
2021/12/09 17:16:36;;;;;;;;;;;;;;;;;;5057353;28;19924;-67
2021/12/09 17:19:03;;;;;;;;;;;;;;;;;;5059163;28;19928;-67